createdAt,value
2019-01-29T00:02:04.491Z,72.03
2019-01-29T00:04:33.877Z,72.02
2019-01-29T00:07:03.532Z,72.04
2019-01-29T00:09:33.945Z,72.04
2019-01-29T00:12:05.103Z,72.07
2019-01-29T00:14:35.704Z,71.90
2019-01-29T00:17:06.275Z,72.07
2019-01-29T00:19:36.784Z,71.97
2019-01-29T00:22:07.868Z,72.28
2019-01-29T00:24:37.288Z,72.63
2019-01-29T00:27:06.669Z,73.11
2019-01-29T00:29:36.316Z,73.40
2019-01-29T00:32:06.072Z,73.22
2019-01-29T00:34:38.624Z,73.11
2019-01-29T00:37:08.294Z,73.11
2019-01-29T00:39:38.769Z,73.19
2019-01-29T00:42:09.651Z,72.98
2019-01-29T00:44:41.009Z,73.19
2019-01-29T00:47:11.128Z,73.06
2019-01-29T00:49:41.962Z,73.39
2019-01-29T00:52:11.568Z,73.29
2019-01-29T00:54:42.163Z,73.24
2019-01-29T00:57:13.470Z,73.47
2019-01-29T00:59:42.955Z,73.76
2019-01-29T01:02:12.435Z,73.56
2019-01-29T01:04:42.207Z,73.61
2019-01-29T01:07:12.936Z,73.46
2019-01-29T01:09:43.363Z,73.49
2019-01-29T01:12:14.573Z,73.37
2019-01-29T01:14:45.449Z,73.42
2019-01-29T01:17:14.950Z,73.34
2019-01-29T01:19:44.392Z,73.21
2019-01-29T01:22:14.125Z,73.10
2019-01-29T01:24:44.702Z,73.14
2019-01-29T01:27:14.137Z,73.27
2019-01-29T01:29:43.745Z,73.18
2019-01-29T01:32:13.131Z,73.15
2019-01-29T01:34:42.551Z,73.08
2019-01-29T01:37:13.821Z,73.59
2019-01-29T01:39:45.023Z,74.22
2019-01-29T01:42:14.425Z,73.85
2019-01-29T01:44:43.909Z,74.51
2019-01-29T01:47:13.411Z,74.62
2019-01-29T01:49:44.016Z,74.47
2019-01-29T01:52:13.700Z,74.40
2019-01-29T01:54:43.100Z,74.58
2019-01-29T01:57:14.313Z,74.28
2019-01-29T01:59:46.554Z,74.55
2019-01-29T02:02:16.002Z,74.59
2019-01-29T02:04:45.429Z,74.63
2019-01-29T02:07:14.872Z,74.79
2019-01-29T02:09:45.713Z,74.81
2019-01-29T02:12:16.315Z,74.83
2019-01-29T02:14:48.479Z,75.01
2019-01-29T02:17:18.105Z,74.76
2019-01-29T02:19:48.683Z,75.11
2019-01-29T02:22:18.369Z,75.27
2019-01-29T02:24:47.912Z,75.59
2019-01-29T02:27:19.009Z,75.76
2019-01-29T02:29:48.432Z,76.01
2019-01-29T02:32:18.827Z,75.75
2019-01-29T02:34:50.013Z,76.20
2019-01-29T02:37:20.885Z,76.21
2019-01-29T02:39:50.392Z,76.12
2019-01-29T02:42:19.932Z,76.15
2019-01-29T02:44:52.539Z,76.15
2019-01-29T02:47:21.925Z,76.65
2019-01-29T02:49:51.330Z,75.91
2019-01-29T02:52:21.164Z,75.82
2019-01-29T02:54:51.627Z,76.17
2019-01-29T02:57:21.048Z,75.93
2019-01-29T02:59:50.503Z,76.02
2019-01-29T03:02:19.952Z,76.39
2019-01-29T03:04:49.367Z,76.38
2019-01-29T03:07:18.929Z,76.60
2019-01-29T03:09:48.438Z,76.69
2019-01-29T03:12:18.341Z,76.79
2019-01-29T03:14:48.000Z,76.79
2019-01-29T03:17:17.409Z,76.84
2019-01-29T03:19:46.794Z,76.89
2019-01-29T03:22:17.478Z,76.53
2019-01-29T03:24:46.958Z,76.30
2019-01-29T03:27:17.727Z,76.28
2019-01-29T03:29:47.315Z,75.54
2019-01-29T03:32:16.794Z,76.10
2019-01-29T03:34:46.273Z,76.12
2019-01-29T03:37:15.829Z,75.87
2019-01-29T03:39:47.129Z,75.96
2019-01-29T03:42:16.546Z,76.21
2019-01-29T03:44:47.715Z,75.48
2019-01-29T03:47:18.603Z,75.76
2019-01-29T03:49:48.047Z,75.22
2019-01-29T03:52:19.595Z,75.11
2019-01-29T03:54:48.996Z,74.80
2019-01-29T03:57:18.400Z,74.56
2019-01-29T03:59:47.851Z,74.96
2019-01-29T04:02:17.276Z,74.83
2019-01-29T04:04:46.967Z,74.93
2019-01-29T04:07:16.571Z,75.05
2019-01-29T04:09:47.398Z,74.78
2019-01-29T04:12:18.642Z,75.05
2019-01-29T04:14:50.816Z,75.13
2019-01-29T04:17:22.278Z,75.06
2019-01-29T04:19:51.676Z,75.11
2019-01-29T04:22:23.167Z,75.09
2019-01-29T04:24:52.661Z,75.42
2019-01-29T04:27:23.519Z,75.20
2019-01-29T04:29:53.066Z,75.55
2019-01-29T04:32:22.750Z,75.56
2019-01-29T04:34:52.184Z,75.57
2019-01-29T04:37:21.735Z,76.16
2019-01-29T04:39:52.661Z,75.94
2019-01-29T04:42:23.290Z,75.95
2019-01-29T04:44:57.542Z,75.95
2019-01-29T04:47:28.749Z,75.60
2019-01-29T04:49:59.257Z,75.41
2019-01-29T04:52:28.992Z,75.73
2019-01-29T04:55:00.992Z,75.27
2019-01-29T04:57:31.420Z,74.97
2019-01-29T05:00:01.101Z,74.90
2019-01-29T05:02:30.798Z,75.08
2019-01-29T05:05:00.200Z,75.06
2019-01-29T05:07:29.814Z,75.12
2019-01-29T05:10:01.470Z,75.79
2019-01-29T05:12:30.868Z,74.80
2019-01-29T05:15:03.071Z,75.33
2019-01-29T05:17:32.480Z,75.32
2019-01-29T05:20:02.194Z,75.26
2019-01-29T05:22:34.450Z,75.17
2019-01-29T05:25:06.980Z,75.23
2019-01-29T05:27:36.514Z,75.19
2019-01-29T05:30:08.618Z,75.07
2019-01-29T05:32:38.001Z,75.23
2019-01-29T05:35:07.975Z,75.54
2019-01-29T05:37:37.554Z,75.05
2019-01-29T05:40:09.380Z,74.31
2019-01-29T05:42:38.754Z,75.14
2019-01-29T05:45:10.947Z,74.99
2019-01-29T05:47:41.562Z,75.93
2019-01-29T05:50:13.309Z,76.19
2019-01-29T05:52:42.863Z,76.40
2019-01-29T05:55:12.708Z,76.21
2019-01-29T05:57:42.461Z,76.47
2019-01-29T06:00:16.024Z,76.11
2019-01-29T06:02:45.571Z,76.33
2019-01-29T06:05:15.439Z,76.44
2019-01-29T06:07:45.060Z,76.57
2019-01-29T06:10:15.113Z,76.78
2019-01-29T06:12:44.472Z,76.71
2019-01-29T06:15:16.134Z,77.05
2019-01-29T06:17:45.728Z,77.81
2019-01-29T06:20:18.911Z,77.97
2019-01-29T06:22:49.716Z,78.19
2019-01-29T06:25:19.137Z,78.08
2019-01-29T06:27:48.777Z,78.33
2019-01-29T06:30:20.103Z,78.04
2019-01-29T06:32:49.694Z,78.15
2019-01-29T06:35:19.932Z,78.44
2019-01-29T06:37:49.339Z,78.89
2019-01-29T06:40:21.177Z,79.06
2019-01-29T06:42:51.269Z,79.27
2019-01-29T06:45:21.631Z,79.35
2019-01-29T06:47:51.150Z,79.10
2019-01-29T06:50:22.804Z,79.21
2019-01-29T06:52:52.255Z,78.77
2019-01-29T06:55:22.355Z,78.78
2019-01-29T06:57:55.679Z,78.72
2019-01-29T07:00:25.559Z,78.71
2019-01-29T07:02:55.188Z,79.13
2019-01-29T07:05:25.341Z,78.74
2019-01-29T07:07:55.003Z,78.88
2019-01-29T07:10:25.377Z,78.71
2019-01-29T07:12:55.304Z,78.54
2019-01-29T07:15:43.461Z,78.28
2019-01-29T07:18:22.594Z,78.47
2019-01-29T07:20:53.029Z,77.91
2019-01-29T07:23:22.940Z,77.69
2019-01-29T07:25:52.741Z,77.56
2019-01-29T07:28:22.186Z,78.08
2019-01-29T07:30:51.631Z,77.92
2019-01-29T07:33:21.254Z,78.60
2019-01-29T07:35:50.860Z,78.45
2019-01-29T07:38:20.366Z,78.20
2019-01-29T07:40:49.938Z,78.17
2019-01-29T07:43:19.336Z,78.45
2019-01-29T07:45:48.723Z,77.80
2019-01-29T07:48:18.410Z,78.09
2019-01-29T07:50:47.849Z,77.74
2019-01-29T07:53:17.285Z,78.32
2019-01-29T07:55:47.921Z,78.31
2019-01-29T07:58:17.381Z,78.21
2019-01-29T08:00:46.835Z,77.83
2019-01-29T08:03:16.284Z,77.74
2019-01-29T08:05:45.846Z,77.55
2019-01-29T08:08:15.347Z,76.92
2019-01-29T08:10:44.926Z,77.07
2019-01-29T08:13:14.550Z,77.06
2019-01-29T08:15:44.054Z,77.15
2019-01-29T08:18:15.002Z,77.05
2019-01-29T08:20:45.628Z,76.34
2019-01-29T08:23:15.256Z,76.57
2019-01-29T08:25:47.986Z,77.06
2019-01-29T08:28:16.180Z,76.38
2019-01-29T08:30:45.596Z,76.54
2019-01-29T08:33:15.225Z,76.23
2019-01-29T08:35:44.599Z,76.63
2019-01-29T08:38:14.024Z,75.98
2019-01-29T08:40:43.588Z,75.47
2019-01-29T08:43:12.985Z,75.15
2019-01-29T08:45:42.397Z,75.50
2019-01-29T08:48:11.963Z,75.67
2019-01-29T08:50:41.477Z,76.06
2019-01-29T08:53:10.871Z,75.80
2019-01-29T08:55:40.380Z,76.38
2019-01-29T08:58:11.487Z,75.87
2019-01-29T09:00:41.114Z,75.77
2019-01-29T09:03:10.548Z,74.83
2019-01-29T09:05:40.962Z,74.69
2019-01-29T09:08:10.645Z,74.52
2019-01-29T09:10:40.251Z,75.32
2019-01-29T09:13:09.648Z,75.03
2019-01-29T09:15:40.162Z,74.85
2019-01-29T09:18:09.659Z,75.03
2019-01-29T09:20:40.317Z,74.97
2019-01-29T09:23:09.779Z,74.72
2019-01-29T09:25:41.171Z,74.92
2019-01-29T09:28:10.760Z,74.73
2019-01-29T09:30:43.936Z,74.24
2019-01-29T09:33:13.759Z,74.14
2019-01-29T09:35:43.133Z,73.98
2019-01-29T09:38:14.506Z,73.71
2019-01-29T09:40:43.954Z,73.54
2019-01-29T09:43:14.824Z,73.82
2019-01-29T09:45:44.328Z,73.90
2019-01-29T09:48:13.781Z,73.76
2019-01-29T09:50:43.211Z,73.81
2019-01-29T09:53:14.498Z,73.95
2019-01-29T09:55:45.268Z,73.66
2019-01-29T09:58:14.709Z,73.54
2019-01-29T10:00:45.907Z,72.90
2019-01-29T10:03:15.541Z,72.79
2019-01-29T10:05:46.004Z,72.81
2019-01-29T10:08:16.721Z,72.12
2019-01-29T10:10:47.432Z,73.04
2019-01-29T10:13:18.660Z,72.93
2019-01-29T10:15:48.082Z,72.84
2019-01-29T10:18:17.556Z,72.95
2019-01-29T10:20:48.442Z,73.43
2019-01-29T10:23:17.856Z,72.99
2019-01-29T10:25:47.559Z,72.44
2019-01-29T10:28:18.166Z,71.98
2019-01-29T10:30:49.456Z,72.37
2019-01-29T10:33:19.478Z,72.27
2019-01-29T10:35:49.171Z,72.90
2019-01-29T10:38:18.567Z,72.19
2019-01-29T10:40:48.507Z,71.60
2019-01-29T10:43:17.915Z,71.16
2019-01-29T10:45:48.944Z,71.17
2019-01-29T10:48:18.610Z,71.60
2019-01-29T10:50:48.117Z,71.28
2019-01-29T10:53:17.624Z,71.36
2019-01-29T10:55:49.735Z,71.63
2019-01-29T10:58:20.216Z,71.77
2019-01-29T11:00:51.066Z,72.34
2019-01-29T11:03:23.671Z,72.40
2019-01-29T11:05:53.094Z,72.42
2019-01-29T11:08:22.473Z,71.58
2019-01-29T11:10:52.024Z,71.22
2019-01-29T11:13:21.491Z,70.26
2019-01-29T11:15:52.732Z,70.98
2019-01-29T11:18:22.499Z,70.47
2019-01-29T11:20:51.887Z,70.10
2019-01-29T11:23:21.393Z,69.46
2019-01-29T11:25:55.985Z,69.88
2019-01-29T11:28:22.088Z,69.79
2019-01-29T11:30:51.576Z,69.46
2019-01-29T11:33:22.531Z,69.83
2019-01-29T11:35:51.956Z,69.06
2019-01-29T11:38:23.162Z,69.00
2019-01-29T11:40:52.847Z,68.61
2019-01-29T11:43:22.306Z,68.56
2019-01-29T11:45:53.816Z,67.61
2019-01-29T11:48:23.877Z,66.82
2019-01-29T11:50:53.372Z,66.76
2019-01-29T11:53:22.783Z,67.57
2019-01-29T11:55:52.323Z,67.53
2019-01-29T11:58:21.731Z,67.93
2019-01-29T12:01:05.935Z,67.26
2019-01-29T12:03:37.897Z,67.48
2019-01-29T12:06:07.648Z,68.08
2019-01-29T12:08:38.441Z,67.85
2019-01-29T12:11:08.114Z,68.21
2019-01-29T12:13:37.494Z,68.18
2019-01-29T12:16:07.084Z,68.53
2019-01-29T12:18:36.513Z,68.53
2019-01-29T12:21:07.379Z,69.12
2019-01-29T12:23:36.783Z,69.13
2019-01-29T12:26:12.892Z,68.46
2019-01-29T12:28:37.576Z,68.59
2019-01-29T12:31:07.055Z,68.92
2019-01-29T12:33:36.470Z,68.36
2019-01-29T12:36:05.887Z,68.73
2019-01-29T12:38:37.538Z,68.56
2019-01-29T12:41:08.615Z,68.40
2019-01-29T12:43:39.238Z,68.83
2019-01-29T12:46:09.005Z,68.90
2019-01-29T12:48:38.401Z,69.34
2019-01-29T12:51:14.237Z,68.93
2019-01-29T12:53:47.857Z,68.63
2019-01-29T12:56:21.588Z,68.98
2019-01-29T12:58:49.905Z,68.75
2019-01-29T13:01:19.831Z,69.34
2019-01-29T13:03:49.460Z,70.34
2019-01-29T13:06:18.959Z,69.07
2019-01-29T13:08:48.524Z,69.53
2019-01-29T13:11:17.974Z,69.26
2019-01-29T13:13:47.395Z,68.99
2019-01-29T13:16:18.955Z,69.19
2019-01-29T13:18:48.374Z,69.28
2019-01-29T13:21:18.779Z,69.64
2019-01-29T13:23:48.472Z,68.80
2019-01-29T13:26:17.897Z,68.63
2019-01-29T13:28:50.918Z,69.13
2019-01-29T13:31:20.442Z,68.92
2019-01-29T13:33:49.859Z,68.92
2019-01-29T13:36:19.270Z,68.88
2019-01-29T13:38:50.676Z,68.84
2019-01-29T13:41:20.533Z,69.11
2019-01-29T13:43:51.473Z,68.79
2019-01-29T13:46:21.291Z,68.24
2019-01-29T13:48:50.847Z,68.74
2019-01-29T13:51:20.251Z,69.41
2019-01-29T13:53:49.856Z,69.71
2019-01-29T13:56:19.348Z,69.09
2019-01-29T13:58:49.789Z,69.08
2019-01-29T14:01:19.405Z,68.93
2019-01-29T14:03:48.898Z,68.63
2019-01-29T14:06:20.794Z,68.75
2019-01-29T14:08:53.609Z,68.98
2019-01-29T14:11:22.870Z,69.03
2019-01-29T14:13:53.407Z,68.56
2019-01-29T14:16:23.215Z,68.87
2019-01-29T14:18:52.764Z,68.34
2019-01-29T14:21:23.382Z,68.89
2019-01-29T14:23:55.681Z,69.48
2019-01-29T14:26:25.742Z,69.16
2019-01-29T14:28:56.886Z,69.07
2019-01-29T14:31:26.606Z,69.01
2019-01-29T14:33:57.849Z,68.55
2019-01-29T14:36:28.448Z,68.23
2019-01-29T14:39:31.489Z,67.77
2019-01-29T14:42:00.882Z,67.85
2019-01-29T14:44:40.363Z,67.93
2019-01-29T14:47:10.012Z,68.30
2019-01-29T14:49:39.431Z,68.41
2019-01-29T14:52:08.966Z,69.16
2019-01-29T14:54:38.527Z,68.62
2019-01-29T14:57:07.948Z,68.74
2019-01-29T14:59:37.354Z,69.16
2019-01-29T15:02:06.956Z,69.61
2019-01-29T15:04:36.345Z,69.10
2019-01-29T15:07:06.967Z,69.12
2019-01-29T15:09:36.648Z,69.30
2019-01-29T15:12:06.054Z,69.46
2019-01-29T15:14:35.540Z,69.42
2019-01-29T15:17:24.203Z,69.03
2019-01-29T15:19:53.672Z,69.70
2019-01-29T15:22:24.167Z,69.73
2019-01-29T15:24:53.649Z,69.78
2019-01-29T15:27:23.680Z,69.51
2019-01-29T15:29:53.223Z,69.92
2019-01-29T15:32:22.904Z,69.55
2019-01-29T15:34:52.481Z,69.26
2019-01-29T15:37:23.116Z,69.53
2019-01-29T15:39:52.669Z,69.08
2019-01-29T15:42:22.073Z,69.10
2019-01-29T15:44:52.689Z,68.78
2019-01-29T15:47:23.624Z,68.06
2019-01-29T15:49:53.025Z,68.26
2019-01-29T15:52:30.049Z,68.75
2019-01-29T15:55:02.158Z,69.21
2019-01-29T15:57:32.855Z,69.59
2019-01-29T16:00:02.300Z,69.41
2019-01-29T16:02:37.340Z,69.73
2019-01-29T16:05:10.233Z,69.92
2019-01-29T16:07:39.718Z,69.71
2019-01-29T16:10:12.760Z,69.94
2019-01-29T16:12:42.275Z,69.87
2019-01-29T16:15:13.867Z,69.98
2019-01-29T16:17:43.841Z,69.85
2019-01-29T16:20:16.076Z,69.40
2019-01-29T16:22:45.488Z,69.52
2019-01-29T16:25:16.125Z,69.32
2019-01-29T16:27:49.122Z,69.61
2019-01-29T16:30:21.248Z,69.85
2019-01-29T16:32:51.007Z,69.66
2019-01-29T16:35:26.004Z,69.02
2019-01-29T16:37:56.178Z,69.19
2019-01-29T16:40:28.065Z,68.84
2019-01-29T16:42:57.631Z,69.11
2019-01-29T16:45:29.890Z,68.94
2019-01-29T16:48:00.328Z,69.01
2019-01-29T16:50:30.045Z,69.41
2019-01-29T16:53:00.146Z,69.65
2019-01-29T16:55:31.770Z,69.52
2019-01-29T16:58:01.380Z,69.88
2019-01-29T17:00:32.075Z,70.25
2019-01-29T17:03:01.818Z,70.43
2019-01-29T17:05:34.927Z,71.18
2019-01-29T17:08:04.709Z,71.18
2019-01-29T17:10:34.207Z,71.14
2019-01-29T17:13:03.593Z,71.65
2019-01-29T17:15:33.348Z,71.90
2019-01-29T17:18:03.342Z,71.98
2019-01-29T17:20:36.053Z,72.18
2019-01-29T17:23:06.823Z,72.09
2019-01-29T17:25:36.699Z,72.22
2019-01-29T17:28:06.308Z,72.52
2019-01-29T17:30:40.767Z,72.67
2019-01-29T17:33:11.497Z,72.55
2019-01-29T17:35:41.729Z,72.62
2019-01-29T17:38:11.613Z,72.96
2019-01-29T17:40:43.675Z,72.65
2019-01-29T17:43:13.243Z,73.15
2019-01-29T17:45:44.692Z,72.96
2019-01-29T17:48:16.079Z,73.27
2019-01-29T17:50:46.580Z,73.56
2019-01-29T17:53:17.107Z,73.71
2019-01-29T17:55:47.727Z,73.74
2019-01-29T17:58:17.137Z,73.43
2019-01-29T18:00:53.666Z,73.77
2019-01-29T18:03:23.368Z,73.77
2019-01-29T18:05:52.983Z,74.06
2019-01-29T18:08:22.496Z,74.38
2019-01-29T18:10:52.141Z,74.34
2019-01-29T18:13:21.691Z,74.12
2019-01-29T18:15:51.227Z,73.87
2019-01-29T18:18:20.773Z,73.96
2019-01-29T18:20:50.236Z,73.79
2019-01-29T18:23:24.652Z,74.34
2019-01-29T18:25:54.484Z,74.36
2019-01-29T18:28:24.955Z,74.42
2019-01-29T18:30:54.395Z,74.37
2019-01-29T18:33:23.861Z,74.39
2019-01-29T18:35:53.303Z,74.28
2019-01-29T18:38:22.748Z,73.89
2019-01-29T18:40:54.774Z,73.94
2019-01-29T18:43:24.380Z,73.96
2019-01-29T18:45:53.943Z,74.01
2019-01-29T18:48:23.649Z,73.95
2019-01-29T18:50:53.049Z,72.88
2019-01-29T18:53:24.707Z,72.54
2019-01-29T18:55:54.242Z,72.89
2019-01-29T18:58:24.645Z,73.13
2019-01-29T19:00:55.930Z,73.18
2019-01-29T19:03:28.382Z,73.75
2019-01-29T19:05:57.912Z,73.68
2019-01-29T19:08:27.317Z,73.90
2019-01-29T19:10:58.036Z,74.16
2019-01-29T19:13:28.474Z,74.25
2019-01-29T19:15:58.975Z,74.54
2019-01-29T19:18:28.725Z,74.38
2019-01-29T19:20:58.284Z,74.45
2019-01-29T19:23:27.776Z,74.75
2019-01-29T19:25:58.554Z,74.58
2019-01-29T19:28:28.191Z,74.99
2019-01-29T19:31:00.170Z,75.25
2019-01-29T19:33:29.959Z,75.36
2019-01-29T19:35:59.611Z,75.30
2019-01-29T19:38:30.419Z,75.25
2019-01-29T19:41:00.318Z,75.32
2019-01-29T19:43:29.762Z,75.45
2019-01-29T19:45:59.327Z,75.32
2019-01-29T19:48:29.844Z,75.37
2019-01-29T19:51:02.576Z,75.23
2019-01-29T19:53:37.874Z,75.51
2019-01-29T19:56:07.384Z,76.04
2019-01-29T19:58:36.814Z,76.20
2019-01-29T20:01:07.732Z,76.18
2019-01-29T20:03:38.248Z,76.18
2019-01-29T20:06:07.713Z,76.54
2019-01-29T20:08:37.431Z,76.74
2019-01-29T20:11:08.449Z,76.66
2019-01-29T20:13:39.638Z,76.70
2019-01-29T20:16:09.422Z,77.07
2019-01-29T20:18:41.124Z,76.79
2019-01-29T20:21:11.150Z,76.65
2019-01-29T20:23:41.411Z,76.31
2019-01-29T20:26:11.974Z,76.61
2019-01-29T20:28:42.592Z,76.88
2019-01-29T20:31:15.015Z,76.91
2019-01-29T20:33:44.585Z,77.17
2019-01-29T20:36:15.474Z,76.96
2019-01-29T20:38:44.949Z,76.84
2019-01-29T20:41:15.381Z,76.87
2019-01-29T20:43:44.902Z,77.02
2019-01-29T20:46:14.874Z,76.94
2019-01-29T20:48:44.360Z,77.16
2019-01-29T20:51:13.784Z,76.99
2019-01-29T20:53:43.481Z,76.99
2019-01-29T20:56:12.961Z,77.19
2019-01-29T20:58:52.325Z,76.99
2019-01-29T21:01:14.106Z,77.18
2019-01-29T21:03:43.662Z,77.44
2019-01-29T21:06:13.238Z,77.36
2019-01-29T21:08:45.893Z,77.26
2019-01-29T21:11:15.390Z,77.35
2019-01-29T21:13:44.803Z,77.43
2019-01-29T21:16:14.376Z,77.42
2019-01-29T21:18:45.594Z,77.62
2019-01-29T21:21:16.061Z,77.56
2019-01-29T21:23:49.058Z,77.68
2019-01-29T21:26:18.722Z,77.28
2019-01-29T21:28:48.441Z,77.39
2019-01-29T21:31:19.543Z,77.68
2019-01-29T21:33:49.064Z,77.41
2019-01-29T21:36:18.411Z,77.62
2019-01-29T21:38:48.176Z,77.46
2019-01-29T21:41:18.795Z,77.33
2019-01-29T21:43:49.231Z,77.52
2019-01-29T21:46:19.311Z,77.29
2019-01-29T21:48:48.961Z,77.33
2019-01-29T21:51:18.391Z,77.33
2019-01-29T21:53:49.106Z,77.47
2019-01-29T21:56:18.527Z,77.48
2019-01-29T21:58:48.196Z,77.78
2019-01-29T22:01:17.783Z,77.63
2019-01-29T22:03:47.618Z,77.02
2019-01-29T22:06:18.445Z,77.48
2019-01-29T22:08:48.531Z,77.07
2019-01-29T22:11:18.332Z,77.27
2019-01-29T22:13:48.934Z,77.49
2019-01-29T22:16:20.850Z,77.24
2019-01-29T22:18:51.894Z,77.36
2019-01-29T22:21:22.840Z,77.45
2019-01-29T22:23:53.598Z,77.63
2019-01-29T22:26:23.168Z,77.63
2019-01-29T22:28:56.111Z,77.61
2019-01-29T22:31:25.826Z,77.53
2019-01-29T22:33:55.252Z,77.71
2019-01-29T22:36:25.832Z,77.57
2019-01-29T22:38:55.252Z,77.81
2019-01-29T22:41:24.704Z,77.62
2019-01-29T22:43:55.191Z,77.79
2019-01-29T22:46:24.859Z,77.44
2019-01-29T22:48:54.262Z,77.51
2019-01-29T22:51:24.812Z,77.39
2019-01-29T22:53:55.466Z,77.52
2019-01-29T22:56:24.927Z,77.26
2019-01-29T23:01:40.031Z,77.56
2019-01-29T23:04:21.574Z,77.54
2019-01-29T23:07:23.029Z,77.32
2019-01-29T23:09:52.459Z,77.21
2019-01-29T23:12:21.885Z,77.30
2019-01-29T23:14:52.978Z,77.48
2019-01-29T23:17:22.371Z,77.51
2019-01-29T23:19:52.867Z,77.78
2019-01-29T23:22:22.563Z,77.54
2019-01-29T23:24:52.114Z,77.45
2019-01-29T23:27:21.606Z,77.34
2019-01-29T23:29:51.385Z,77.40
2019-01-29T23:32:20.826Z,77.60
2019-01-29T23:34:52.116Z,77.47
2019-01-29T23:37:22.062Z,77.87
2019-01-29T23:39:51.547Z,77.72
2019-01-29T23:42:22.194Z,77.92
2019-01-29T23:44:52.658Z,77.84
2019-01-29T23:47:22.096Z,77.54
2019-01-29T23:49:51.648Z,77.42
2019-01-29T23:52:22.682Z,77.51
2019-01-29T23:54:51.993Z,77.40
2019-01-29T23:57:21.347Z,77.31
2019-01-29T23:59:53.705Z,77.24
